Latest Weather Observations for Camden

IDN60901

Issued at 9:31 am EST Saturday 23 May 2015 (issued every 10 minutes, with the page automatically refreshed every 10 minutes)

About weather observations | Map of Sydney area stations | Latest observations for Sydney area | Other Formats
Station Details ID: 068192 Name: CAMDEN AIRPORT AWS Lat: -34.04 Lon: 150.69 Height: 73.9 m
Data from the previous 72 hours. | See also: Recent months at Camden
Date/Time
EST
Tmp

°C
App
Tmp
°C
Dew
Point
°C
Rel
Hum
%
Delta-T

°C
Wind Press
QNH
hPa
Press
MSL
hPa
Rain
since
9 am
mm
Dir
 
Spd
km/h
Gust
km/h
Spd
kts
Gust
kts
23/09:30am 14.4 9.6 5.5 55 4.2 SW 20 26 11 14 1029.9 1029.9 0.0
23/09:00am 13.6 10.1 5.3 57 3.9 SW 13 20 7 11 1029.9 1029.9 4.0
23/08:30am 12.5 9.7 5.2 61 3.4 SW 9 15 5 8 1029.7 1029.7 4.0
23/08:00am 11.1 8.7 5.2 67 2.7 SSW 7 11 4 6 1029.6 1029.5 4.0
23/07:30am 9.8 7.2 4.4 69 2.4 SSW 7 9 4 5 1029.2 1029.2 4.0
23/07:00am 10.0 6.6 4.2 67 2.6 SSW 11 15 6 8 1028.7 1028.7 4.0
23/06:30am 10.4 6.7 4.5 67 2.7 SW 13 22 7 12 1028.4 1028.4 4.0
23/05:30am 11.2 6.4 4.7 64 3.0 SSW 19 30 10 16 1027.5 1027.5 4.0
23/05:00am 11.2 7.7 5.3 67 2.7 SSW 13 22 7 12 1027.4 1027.4 4.0
23/04:30am 10.4 7.3 5.4 71 2.3 S 11 17 6 9 1027.2 1027.2 4.0
23/04:00am 10.2 7.8 5.4 72 2.2 SSW 7 11 4 6 1027.0 1027.0 4.0
23/03:30am 10.8 6.6 5.8 71 2.3 SW 17 24 9 13 1027.1 1027.1 4.0
23/03:00am 10.8 7.9 6.4 74 2.1 SW 11 17 6 9 1027.3 1027.3 4.0
23/02:30am 11.3 8.0 6.4 72 2.3 SW 13 20 7 11 1027.2 1027.2 4.0
23/02:00am 11.6 8.5 7.1 74 2.1 SW 13 20 7 11 1027.3 1027.3 4.0
23/01:30am 12.5 9.1 7.6 72 2.4 SW 15 24 8 13 1027.3 1027.3 4.0
23/01:00am 12.5 9.2 8.0 74 2.2 SW 15 24 8 13 1027.3 1027.3 4.0
23/12:30am 12.3 9.1 8.4 77 1.9 SW 15 19 8 10 1027.1 1027.1 4.0
23/12:00am 12.1 9.6 8.4 78 1.8 SW 11 15 6 8 1027.0 1027.0 4.0
 
Date/Time
EST
Tmp

°C
App
Tmp
°C
Dew
Point
°C
Rel
Hum
%
Delta-T

°C
Wind Press
QNH
hPa
Press
MSL
hPa
Rain
since
9 am
mm
Dir
 
Spd
km/h
Gust
km/h
Spd
kts
Gust
kts
22/11:30pm 12.0 9.2 8.7 80 1.6 SW 13 20 7 11 1027.1 1027.1 4.0
22/11:00pm 12.2 8.6 8.5 78 1.8 SW 17 20 9 11 1027.0 1027.0 4.0
22/10:30pm 12.0 7.9 8.7 80 1.6 SW 20 28 11 15 1026.9 1026.9 4.0
22/10:00pm 11.6 8.4 8.3 80 1.6 SW 15 20 8 11 1026.6 1026.6 4.0
22/09:30pm 11.8 7.7 7.9 77 1.9 SW 19 26 10 14 1026.5 1026.5 4.0
22/09:00pm 12.4 9.5 8.1 75 2.1 SW 13 22 7 12 1026.3 1026.3 4.0
22/08:30pm 12.0 8.7 8.1 77 1.9 SW 15 20 8 11 1026.0 1026.0 4.0
22/08:00pm 12.1 9.4 8.9 81 1.6 SW 13 22 7 12 1026.2 1026.2 4.0
22/07:30pm 11.7 9.2 9.6 87 1.1 WSW 13 19 7 10 1025.8 1025.8 4.0
22/07:00pm 11.4 7.8 9.8 90 0.8 SW 19 32 10 17 1025.6 1025.6 4.0
22/06:30pm 12.0 9.4 9.2 83 1.4 WSW 13 24 7 13 1025.2 1025.2 3.8
22/06:00pm 12.1 9.0 8.9 81 1.6 SW 15 22 8 12 1024.7 1024.7 3.8
22/05:30pm 12.7 9.7 9.3 80 1.7 WSW 15 20 8 11 1024.2 1024.2 3.8
22/05:00pm 13.0 11.7 9.8 81 1.6 SW 7 9 4 5 1024.0 1024.0 3.8
22/04:30pm 13.0 10.5 9.8 81 1.6 S 13 17 7 9 1023.6 1023.6 3.8
22/04:00pm 13.5 11.2 10.5 82 1.6 SSW 13 20 7 11 1023.0 1023.0 3.8
22/03:30pm 13.1 9.6 10.8 86 1.2 SSW 20 30 11 16 1022.7 1022.7 3.8
22/03:00pm 14.0 9.3 9.2 73 2.4 SSW 24 35 13 19 1022.2 1022.2 3.8
22/02:30pm 15.3 10.1 8.8 65 3.3 SSW 26 39 14 21 1021.6 1021.6 3.8
22/02:18pm 15.6 10.0 8.6 63 3.6 S 28 46 15 25 1021.6 1021.6 3.8
22/02:00pm 15.4 9.2 7.7 60 3.8 S 30 44 16 24 1021.4 1021.4 3.8
22/01:30pm 15.4 8.9 8.9 65 3.3 SSW 33 52 18 28 1021.2 1021.2 3.8
22/01:24pm 15.7 10.3 9.4 66 3.3 SSW 28 46 15 25 1021.0 1021.0 3.8
22/01:00pm 14.6 9.2 9.4 71 2.7 S 28 43 15 23 1021.0 1021.0 3.8
22/12:36pm 15.6 9.9 9.7 68 3.1 SSW 30 48 16 26 1020.5 1020.5 3.8
22/12:30pm 15.6 10.3 9.7 68 3.1 S 28 41 15 22 1020.3 1020.3 3.8
22/12:00pm 14.4 10.7 11.4 82 1.6 SSW 22 30 12 16 1020.4 1020.4 3.8
22/11:30am 14.0 9.5 11.3 84 1.4 S 26 37 14 20 1020.2 1020.2 3.8
22/11:00am 13.8 9.5 12.2 90 0.9 S 26 41 14 22 1020.0 1020.0 3.8
22/10:53am 13.8 9.0 11.7 87 1.1 S 28 46 15 25 1019.9 1019.9 3.6
22/10:30am 14.1 11.5 12.0 87 1.1 SSW 17 26 9 14 1019.6 1019.6 3.4
22/10:00am 13.4 10.8 12.0 91 0.8 SW 17 28 9 15 1019.3 1019.3 3.2
22/09:30am 13.2 10.5 11.8 91 0.8 SW 17 24 9 13 1018.9 1018.9 1.8
22/09:00am 13.2 10.4 11.4 89 1.0 SW 17 20 9 11 1018.7 1018.7 1.4
22/08:30am 14.0 11.0 10.6 80 1.8 SSW 17 24 9 13 1018.5 1018.5 0.0
22/08:00am 13.7 10.9 9.9 78 2.0 SSW 15 20 8 11 1018.1 1018.0 0.0
22/07:30am 14.2 10.1 8.8 70 2.7 SW 20 30 11 16 1017.5 1017.4 0.0
22/07:00am 14.1 9.6 8.5 69 2.8 SSW 22 33 12 18 1017.2 1017.1 0.0
22/06:30am 13.6 9.4 8.4 71 2.6 SW 20 32 11 17 1016.9 1016.8 0.0
22/06:00am 13.4 9.3 8.5 72 2.5 SW 20 30 11 16 1016.5 1016.4 0.0
22/05:30am 13.9 10.0 8.7 71 2.6 SW 19 26 10 14 1016.5 1016.4 0.0
22/05:00am 14.1 10.6 8.7 70 2.7 SW 17 28 9 15 1016.5 1016.4 0.0
22/04:30am 13.7 11.3 8.5 71 2.6 SW 11 17 6 9 1016.6 1016.5 0.0
22/04:00am 13.4 9.8 8.3 71 2.5 SW 17 20 9 11 1016.4 1016.3 0.0
22/03:30am 13.1 9.8 8.0 71 2.5 SW 15 20 8 11 1016.5 1016.4 0.0
22/03:00am 13.3 9.5 7.7 69 2.8 SW 17 26 9 14 1016.7 1016.6 0.0
22/02:30am 13.0 10.0 7.5 69 2.7 SW 13 19 7 10 1016.9 1016.8 0.0
22/02:00am 12.9 9.1 7.4 69 2.7 WSW 17 22 9 12 1017.0 1016.9 0.0
22/01:30am 13.2 9.9 7.9 70 2.6 SW 15 22 8 12 1017.1 1017.0 0.0
22/01:00am 12.7 9.7 7.8 72 2.4 SW 13 17 7 9 1017.4 1017.3 0.0
22/12:30am 12.7 9.0 7.8 72 2.4 SW 17 22 9 12 1017.5 1017.4 0.0
22/12:00am 12.9 9.7 8.4 74 2.2 SW 15 20 8 11 1017.7 1017.6 0.0
 
Date/Time
EST
Tmp

°C
App
Tmp
°C
Dew
Point
°C
Rel
Hum
%
Delta-T

°C
Wind Press
QNH
hPa
Press
MSL
hPa
Rain
since
9 am
mm
Dir
 
Spd
km/h
Gust
km/h
Spd
kts
Gust
kts
21/11:30pm 12.7 10.0 8.8 77 2.0 SW 13 17 7 9 1017.7 1017.6 0.0
21/11:00pm 12.4 9.6 8.7 78 1.8 SW 13 19 7 10 1017.9 1017.8 0.0
21/10:30pm 12.6 9.9 8.9 78 1.9 SW 13 19 7 10 1018.3 1018.2 0.0
21/10:00pm 13.0 10.0 9.3 78 1.9 WSW 15 19 8 10 1018.5 1018.5 0.0
21/09:30pm 12.8 11.0 9.4 80 1.7 SW 9 13 5 7 1018.3 1018.2 0.0
21/09:00pm 12.8 11.0 9.4 80 1.7 SSW 9 11 5 6 1018.4 1018.4 0.0
21/08:30pm 12.6 10.8 9.4 81 1.6 SSW 9 11 5 6 1018.4 1018.4 0.0
21/08:00pm 12.1 10.2 8.9 81 1.6 SW 9 11 5 6 1018.3 1018.2 0.0
21/07:30pm 13.8 12.3 9.3 74 2.3 S 7 9 4 5 1018.6 1018.6 0.0
21/07:00pm 14.0 12.6 9.0 72 2.5 SSW 6 7 3 4 1018.2 1018.1 0.0
21/06:30pm 14.7 13.4 9.3 70 2.8 S 6 9 3 5 1018.2 1018.1 0.0
21/06:00pm 15.5 13.6 9.2 66 3.2 S 9 11 5 6 1017.7 1017.6 0.0
21/05:30pm 15.6 15.8 10.6 72 2.7 CALM 0 2 0 1 1017.6 1017.5 0.0
21/05:00pm 17.1 16.1 10.2 64 3.7 E 6 9 3 5 1017.3 1017.2 0.0
21/04:30pm 17.9 16.6 9.8 59 4.3 S 7 9 4 5 1017.1 1017.0 0.0
21/04:00pm 19.0 17.7 9.2 53 5.2 SSW 6 11 3 6 1017.2 1017.1 0.0
21/03:30pm 18.5 18.8 10.8 61 4.2 CALM 0 6 0 3 1017.1 1017.0 0.0
21/03:00pm 18.7 17.4 9.8 56 4.7 SSE 7 9 4 5 1017.0 1016.9 0.0
21/02:30pm 19.2 17.1 9.9 55 5.0 SSE 11 15 6 8 1016.9 1016.8 0.0
21/02:00pm 18.9 18.0 10.5 58 4.5 ESE 6 7 3 4 1016.8 1016.7 0.0
21/01:30pm 18.8 16.6 9.3 54 5.0 SSW 11 17 6 9 1017.0 1016.9 0.0
21/01:00pm 19.5 17.1 8.5 49 5.7 SSW 11 20 6 11 1017.1 1017.0 0.0
21/12:30pm 20.7 18.4 9.0 47 6.2 WSW 11 20 6 11 1017.5 1017.4 0.0
21/12:00pm 19.3 17.8 9.2 52 5.3 WSW 7 9 4 5 1018.2 1018.1 0.0
21/11:30am 20.1 18.3 9.4 50 5.7 SW 9 20 5 11 1018.6 1018.6 0.0
21/11:00am 19.1 16.9 7.8 48 5.8 SW 9 15 5 8 1019.0 1019.0 0.0
21/10:30am 18.7 15.7 7.8 49 5.6 W 13 17 7 9 1019.0 1019.0 0.0
21/10:00am 18.2 15.6 7.9 51 5.3 SW 11 15 6 8 1019.2 1019.2 0.0
21/09:30am 17.1 14.3 8.5 57 4.4 WSW 13 20 7 11 1019.0 1019.0 0.0
21/09:00am 16.6 15.8 9.8 64 3.6 ESE 4 9 2 5 1018.9 1018.9 0.2
21/08:30am 15.2 15.0 10.4 73 2.5 ENE 2 9 1 5 1018.7 1018.7 0.2
21/08:00am 13.8 14.0 10.6 81 1.7 CALM 0 6 0 3 1018.5 1018.5 0.2
21/07:30am 12.7 10.9 9.5 81 1.6 ESE 9 11 5 6 1018.5 1018.5 0.2
21/07:00am 12.6 11.3 9.1 79 1.8 SSE 6 7 3 4 1018.2 1018.1 0.2
21/06:30am 13.5 13.1 9.6 77 2.0 S 2 7 1 4 1017.8 1017.7 0.2
21/06:00am 12.9 12.3 10.3 84 1.3 ESE 4 9 2 5 1017.6 1017.5 0.2
21/05:30am 12.2 10.5 9.8 85 1.2 WNW 9 15 5 8 1017.2 1017.1 0.0
21/05:00am 12.7 11.0 9.7 82 1.5 SSW 9 13 5 7 1017.0 1016.9 0.0
21/04:30am 12.6 11.7 11.3 92 0.7 WSW 7 11 4 6 1016.6 1016.5 0.0
21/04:00am 12.1 10.7 10.8 92 0.7 W 9 11 5 6 1016.6 1016.5 0.0
21/03:30am 12.8 13.4 12.0 95 0.4 CALM 0 0 0 0 1016.7 1016.6 0.0
21/03:00am 13.1 13.6 12.9 99 0.1 NW 2 7 1 4 1016.7 1016.6 0.0
21/02:30am 13.3 14.3 13.1 99 0.1 CALM 0 6 0 3 1016.7 1016.6 0.0
21/02:00am 13.3 14.3 13.1 99 0.1 CALM 0 0 0 0 1017.0 1016.9 0.0
21/01:30am 13.7 14.0 13.5 99 0.1 NNE 4 9 2 5 1016.9 1016.8 0.0
21/01:00am 13.6 14.7 13.4 99 0.1 CALM 0 0 0 0 1016.8 1016.7 0.0
21/12:30am 13.4 13.6 13.2 99 0.1 NNE 4 7 2 4 1017.0 1016.9 0.0
21/12:00am 13.5 13.8 13.3 99 0.1 S 4 7 2 4 1017.1 1017.0 0.0
 
Date/Time
EST
Tmp

°C
App
Tmp
°C
Dew
Point
°C
Rel
Hum
%
Delta-T

°C
Wind Press
QNH
hPa
Press
MSL
hPa
Rain
since
9 am
mm
Dir
 
Spd
km/h
Gust
km/h
Spd
kts
Gust
kts
20/11:30pm 13.2 14.1 13.0 99 0.1 CALM 0 0 0 0 1016.9 1016.8 0.0
20/11:00pm 12.9 13.4 12.7 99 0.1 WSW 2 11 1 6 1017.1 1017.0 0.0
20/10:30pm 13.6 14.7 13.4 99 0.1 CALM 0 0 0 0 1016.5 1016.4 0.0
20/10:00pm 12.9 13.0 12.6 98 0.2 ENE 4 9 2 5 1016.6 1016.5 0.0
20/09:30pm 13.6 14.2 13.1 97 0.3 N 2 7 1 4 1016.5 1016.4 0.0
20/09:00pm 13.8 14.6 12.7 93 0.6 CALM 0 0 0 0 1016.5 1016.4 0.0
20/08:30pm 14.7 15.8 13.6 93 0.6 CALM 0 0 0 0 1016.2 1016.1 0.0
20/08:00pm 15.0 16.1 13.5 91 0.8 CALM 0 0 0 0 1015.8 1015.7 0.0
20/07:30pm 15.8 16.9 13.6 87 1.2 CALM 0 0 0 0 1015.6 1015.5 0.0
20/07:00pm 16.7 17.7 13.2 80 2.0 CALM 0 0 0 0 1015.3 1015.3 0.0
20/06:30pm 16.6 16.6 13.5 82 1.7 NNW 6 7 3 4 1014.8 1014.8 0.0
20/06:00pm 17.5 18.6 13.4 77 2.3 CALM 0 6 0 3 1014.2 1014.2 0.0
20/05:30pm 18.1 18.0 14.0 77 2.4 N 7 7 4 4 1014.0 1014.0 0.0
20/05:00pm 19.0 18.8 13.0 68 3.4 NNE 6 7 3 4 1013.8 1013.8 0.0
20/04:30pm 19.5 19.0 13.7 69 3.3 N 9 11 5 6 1013.9 1013.9 0.0
20/04:00pm 20.7 20.2 12.7 60 4.5 NNW 7 11 4 6 1013.7 1013.7 0.0
20/03:30pm 21.6 19.7 11.9 54 5.5 N 13 19 7 10 1013.5 1013.5 0.0
20/03:00pm 22.5 21.8 11.9 51 6.0 W 7 9 4 5 1013.1 1013.1 0.0
20/02:30pm 22.6 21.3 11.4 49 6.3 WSW 9 15 5 8 1013.1 1013.1 0.0
20/02:00pm 23.6 20.7 11.0 45 7.0 WNW 17 22 9 12 1013.4 1013.4 0.0
20/01:30pm 23.7 21.5 10.7 44 7.2 WNW 13 19 7 10 1013.2 1013.2 0.0
20/01:00pm 23.9 23.8 12.2 48 6.7 NNW 4 15 2 8 1013.6 1013.6 0.0
20/12:30pm 22.2 22.3 13.8 59 4.9 NNW 6 9 3 5 1014.1 1014.1 0.0
20/12:00pm 20.7 21.5 13.6 64 4.1 WNW 2 7 1 4 1014.4 1014.4 0.0
20/11:30am 19.7 21.0 15.1 75 2.7 ENE 2 9 1 5 1015.0 1015.0 0.0
20/11:00am 17.8 19.6 15.4 86 1.4 CALM 0 7 0 4 1015.6 1015.5 0.0
20/10:30am 15.6 17.4 15.6 100 0.0 CALM 0 6 0 3 1015.8 1015.7 0.0
20/10:11am 14.8 16.4 14.8 100 0.0 CALM 0 0 0 0 1015.9 1015.8 0.0
20/10:09am 14.9 16.5 14.9 100 0.0 CALM 0 0 0 0 1015.9 1015.8 0.0
20/10:02am 14.7 16.2 14.7 100 0.0 CALM 0 0 0 0 1016.0 1015.9 0.0
20/10:00am 14.8 16.4 14.8 100 0.0 CALM 0 6 0 3 1016.0 1015.9 0.0

Latest Capital City Observations: Canberra | Sydney | Melbourne | Brisbane | Adelaide | Perth | Hobart | Darwin

Other Formats:

Comma delimited format used in spreadsheet applications
http://www.bom.gov.au/fwo/IDN60901/IDN60901.94755.axf

JavaScript Object Notation format (JSON) in row-major order
http://www.bom.gov.au/fwo/IDN60901/IDN60901.94755.json